sensor_id;sensor_type;location;lat;lon;timestamp;pressure;altitude;pressure_sealevel;temperature;humidity
10732;BME280;5417;42.686;23.244;2023-09-19T00:34:42;94626.03;;;18.22;65.22
10732;BME280;5417;42.686;23.244;2023-09-19T00:40:54;94632.44;;;18.20;65.46
10732;BME280;5417;42.686;23.244;2023-09-19T00:43:35;94639.88;;;18.24;65.52
10732;BME280;5417;42.686;23.244;2023-09-19T00:46:05;94642.50;;;18.33;65.24
10732;BME280;5417;42.686;23.244;2023-09-19T00:48:40;94638.88;;;18.25;65.03
10732;BME280;5417;42.686;23.244;2023-09-19T00:51:10;94641.16;;;18.20;65.68
10732;BME280;5417;42.686;23.244;2023-09-19T00:53:40;94640.66;;;18.17;66.11
10732;BME280;5417;42.686;23.244;2023-09-19T00:57:09;94637.38;;;18.15;65.88
10732;BME280;5417;42.686;23.244;2023-09-19T00:59:56;94634.56;;;18.08;65.63
10732;BME280;5417;42.686;23.244;2023-09-19T01:02:50;94633.75;;;18.08;65.97
10732;BME280;5417;42.686;23.244;2023-09-19T01:05:40;94640.84;;;18.07;66.28
10732;BME280;5417;42.686;23.244;2023-09-19T01:08:26;94637.53;;;18.05;66.02
10732;BME280;5417;42.686;23.244;2023-09-19T01:17:43;94649.22;;;18.03;66.23
10732;BME280;5417;42.686;23.244;2023-09-19T01:20:25;94643.31;;;18.09;65.73
10732;BME280;5417;42.686;23.244;2023-09-19T01:26:43;94649.56;;;18.00;65.90
10732;BME280;5417;42.686;23.244;2023-09-19T01:29:29;94646.28;;;17.97;66.73
10732;BME280;5417;42.686;23.244;2023-09-19T01:32:05;94656.31;;;17.94;66.42
10732;BME280;5417;42.686;23.244;2023-09-19T01:35:11;94646.09;;;17.91;66.15
10732;BME280;5417;42.686;23.244;2023-09-19T01:47:40;94645.59;;;17.79;66.94
10732;BME280;5417;42.686;23.244;2023-09-19T02:06:21;94639.78;;;17.67;67.24
10732;BME280;5417;42.686;23.244;2023-09-19T02:12:01;94641.59;;;17.67;67.65
10732;BME280;5417;42.686;23.244;2023-09-19T02:14:41;94632.34;;;17.63;67.20
10732;BME280;5417;42.686;23.244;2023-09-19T02:17:36;94641.41;;;17.60;67.24
10732;BME280;5417;42.686;23.244;2023-09-19T02:20:04;94634.47;;;17.59;67.09
10732;BME280;5417;42.686;23.244;2023-09-19T02:22:37;94632.50;;;17.61;66.90
10732;BME280;5417;42.686;23.244;2023-09-19T02:35:13;94626.06;;;17.48;67.89
10732;BME280;5417;42.686;23.244;2023-09-19T02:37:42;94626.91;;;17.48;68.03
10732;BME280;5417;42.686;23.244;2023-09-19T02:40:10;94624.09;;;17.50;68.49
10732;BME280;5417;42.686;23.244;2023-09-19T02:42:44;94627.88;;;17.47;67.84
10732;BME280;5417;42.686;23.244;2023-09-19T02:52:12;94606.00;;;17.39;67.72
10732;BME280;5417;42.686;23.244;2023-09-19T02:54:44;94614.03;;;17.37;67.87
10732;BME280;5417;42.686;23.244;2023-09-19T02:57:11;94602.34;;;17.31;67.63
10732;BME280;5417;42.686;23.244;2023-09-19T02:59:43;94604.16;;;17.31;67.66
10732;BME280;5417;42.686;23.244;2023-09-19T03:23:20;94592.31;;;17.19;68.78
10732;BME280;5417;42.686;23.244;2023-09-19T03:28:36;94585.84;;;17.13;69.11
10732;BME280;5417;42.686;23.244;2023-09-19T03:31:04;94593.41;;;17.16;69.18
10732;BME280;5417;42.686;23.244;2023-09-19T03:39:49;94611.22;;;17.22;68.84
10732;BME280;5417;42.686;23.244;2023-09-19T03:42:19;94604.09;;;17.15;69.17
10732;BME280;5417;42.686;23.244;2023-09-19T03:44:51;94615.59;;;17.14;69.52
10732;BME280;5417;42.686;23.244;2023-09-19T03:48:14;94616.75;;;17.11;69.31
10732;BME280;5417;42.686;23.244;2023-09-19T03:50:37;94614.59;;;17.07;69.98
10732;BME280;5417;42.686;23.244;2023-09-19T03:53:06;94616.25;;;17.08;69.91
10732;BME280;5417;42.686;23.244;2023-09-19T03:55:49;94611.47;;;17.03;69.60
10732;BME280;5417;42.686;23.244;2023-09-19T03:58:23;94615.72;;;17.04;69.41
10732;BME280;5417;42.686;23.244;2023-09-19T04:25:57;94624.88;;;17.26;69.96
10732;BME280;5417;42.686;23.244;2023-09-19T04:28:42;94615.88;;;17.45;69.03
10732;BME280;5417;42.686;23.244;2023-09-19T04:31:42;94618.34;;;17.46;69.23
10732;BME280;5417;42.686;23.244;2023-09-19T04:34:53;94601.00;;;17.78;71.60
10732;BME280;5417;42.686;23.244;2023-09-19T04:39:48;94601.81;;;18.27;68.64
10732;BME280;5417;42.686;23.244;2023-09-19T04:40:51;94604.88;;;18.79;66.28
10732;BME280;5417;42.686;23.244;2023-09-19T04:43:27;94609.63;;;19.31;64.13
10732;BME280;5417;42.686;23.244;2023-09-19T04:47:24;94599.16;;;19.46;61.92
10732;BME280;5417;42.686;23.244;2023-09-19T04:49:41;94601.53;;;19.33;61.29
10732;BME280;5417;42.686;23.244;2023-09-19T04:52:08;94600.72;;;19.32;61.82
10732;BME280;5417;42.686;23.244;2023-09-19T04:54:54;94601.88;;;19.61;61.59
10732;BME280;5417;42.686;23.244;2023-09-19T05:03:21;94593.84;;;21.49;55.63
10732;BME280;5417;42.686;23.244;2023-09-19T05:05:53;94593.31;;;21.96;54.19
10732;BME280;5417;42.686;23.244;2023-09-19T05:08:23;94587.09;;;22.53;52.85
10732;BME280;5417;42.686;23.244;2023-09-19T05:10:58;94590.97;;;23.13;50.91
10732;BME280;5417;42.686;23.244;2023-09-19T05:14:23;94595.78;;;23.91;48.48
10732;BME280;5417;42.686;23.244;2023-09-19T05:19:44;94587.88;;;25.04;46.50
10732;BME280;5417;42.686;23.244;2023-09-19T05:22:15;94595.09;;;25.41;44.88
10732;BME280;5417;42.686;23.244;2023-09-19T05:24:46;94590.50;;;25.75;44.42
10732;BME280;5417;42.686;23.244;2023-09-19T05:27:35;94590.75;;;26.05;43.62
10732;BME280;5417;42.686;23.244;2023-09-19T05:30:09;94571.75;;;25.88;43.86
10732;BME280;5417;42.686;23.244;2023-09-19T05:32:39;94582.69;;;25.73;43.43
10732;BME280;5417;42.686;23.244;2023-09-19T05:35:08;94565.69;;;25.16;45.37
10732;BME280;5417;42.686;23.244;2023-09-19T05:37:54;94579.69;;;24.99;45.29
10732;BME280;5417;42.686;23.244;2023-09-19T05:41:25;94567.38;;;24.25;47.22
10732;BME280;5417;42.686;23.244;2023-09-19T05:47:17;94575.50;;;23.23;49.91
10732;BME280;5417;42.686;23.244;2023-09-19T05:49:44;94580.56;;;23.11;50.07
10732;BME280;5417;42.686;23.244;2023-09-19T05:52:25;94580.47;;;22.91;51.63
10732;BME280;5417;42.686;23.244;2023-09-19T05:58:14;94557.84;;;22.18;53.62
10732;BME280;5417;42.686;23.244;2023-09-19T06:00:59;94574.91;;;22.09;53.67
10732;BME280;5417;42.686;23.244;2023-09-19T06:03:27;94571.78;;;21.84;53.89
10732;BME280;5417;42.686;23.244;2023-09-19T06:05:56;94571.53;;;21.79;55.31
10732;BME280;5417;42.686;23.244;2023-09-19T06:08:25;94576.44;;;21.82;55.00
10732;BME280;5417;42.686;23.244;2023-09-19T06:11:23;94571.47;;;21.72;55.47
10732;BME280;5417;42.686;23.244;2023-09-19T06:13:52;94553.03;;;21.43;55.52
10732;BME280;5417;42.686;23.244;2023-09-19T06:16:21;94574.22;;;21.43;56.08
10732;BME280;5417;42.686;23.244;2023-09-19T06:18:49;94568.72;;;21.45;55.68
10732;BME280;5417;42.686;23.244;2023-09-19T06:27:46;94560.38;;;23.23;51.91
10732;BME280;5417;42.686;23.244;2023-09-19T06:30:13;94551.38;;;23.85;49.80
10732;BME280;5417;42.686;23.244;2023-09-19T06:32:40;94556.16;;;24.36;49.10
10732;BME280;5417;42.686;23.244;2023-09-19T06:35:10;94560.66;;;24.56;47.93
10732;BME280;5417;42.686;23.244;2023-09-19T06:37:37;94555.31;;;24.75;47.52
10732;BME280;5417;42.686;23.244;2023-09-19T06:46:39;94562.06;;;24.25;47.13
10732;BME280;5417;42.686;23.244;2023-09-19T06:49:10;94564.53;;;24.13;47.54
10732;BME280;5417;42.686;23.244;2023-09-19T06:52:02;94568.81;;;24.01;47.70
10732;BME280;5417;42.686;23.244;2023-09-19T06:55:17;94569.56;;;23.82;47.84
10732;BME280;5417;42.686;23.244;2023-09-19T06:57:41;94577.13;;;23.72;48.77
10732;BME280;5417;42.686;23.244;2023-09-19T07:00:35;94577.13;;;23.65;48.83
10732;BME280;5417;42.686;23.244;2023-09-19T07:03:32;94575.22;;;23.52;49.13
10732;BME280;5417;42.686;23.244;2023-09-19T07:05:59;94555.47;;;23.27;49.88
10732;BME280;5417;42.686;23.244;2023-09-19T07:08:28;94570.53;;;23.07;50.00
10732;BME280;5417;42.686;23.244;2023-09-19T07:11:24;94574.97;;;23.00;50.46
10732;BME280;5417;42.686;23.244;2023-09-19T07:13:51;94574.38;;;23.04;50.61
10732;BME280;5417;42.686;23.244;2023-09-19T07:16:18;94572.81;;;22.82;51.08
10732;BME280;5417;42.686;23.244;2023-09-19T07:22:03;94578.75;;;22.56;52.42
10732;BME280;5417;42.686;23.244;2023-09-19T07:24:30;94568.88;;;22.43;52.33
10732;BME280;5417;42.686;23.244;2023-09-19T07:26:59;94570.47;;;22.38;52.83
10732;BME280;5417;42.686;23.244;2023-09-19T07:29:26;94577.94;;;22.55;52.45
10732;BME280;5417;42.686;23.244;2023-09-19T07:31:53;94573.78;;;22.46;53.11
10732;BME280;5417;42.686;23.244;2023-09-19T07:38:03;94566.19;;;21.94;54.98
10732;BME280;5417;42.686;23.244;2023-09-19T07:40:59;94582.94;;;21.58;56.81
10732;BME280;5417;42.686;23.244;2023-09-19T07:43:26;94571.81;;;21.48;56.81
10732;BME280;5417;42.686;23.244;2023-09-19T07:45:53;94582.44;;;21.19;57.42
10732;BME280;5417;42.686;23.244;2023-09-19T07:48:22;94574.22;;;21.14;57.50
10732;BME280;5417;42.686;23.244;2023-09-19T07:54:32;94586.94;;;21.03;58.92
10732;BME280;5417;42.686;23.244;2023-09-19T07:57:01;94585.56;;;20.93;58.81
10732;BME280;5417;42.686;23.244;2023-09-19T08:05:35;94573.88;;;21.02;59.44
10732;BME280;5417;42.686;23.244;2023-09-19T08:08:03;94565.47;;;21.13;57.77
10732;BME280;5417;42.686;23.244;2023-09-19T08:10:34;94556.59;;;21.21;57.64
10732;BME280;5417;42.686;23.244;2023-09-19T08:13:01;94569.38;;;21.47;56.92
10732;BME280;5417;42.686;23.244;2023-09-19T08:15:29;94562.06;;;21.70;56.67
10732;BME280;5417;42.686;23.244;2023-09-19T08:20:09;94563.53;;;21.94;56.26
10732;BME280;5417;42.686;23.244;2023-09-19T08:21:12;94552.94;;;22.15;55.33
10732;BME280;5417;42.686;23.244;2023-09-19T08:23:41;94551.59;;;22.26;54.88
10732;BME280;5417;42.686;23.244;2023-09-19T08:26:10;94561.94;;;22.42;54.32
10732;BME280;5417;42.686;23.244;2023-09-19T08:28:37;94558.16;;;22.58;54.74
10732;BME280;5417;42.686;23.244;2023-09-19T08:31:07;94564.56;;;22.70;53.96
10732;BME280;5417;42.686;23.244;2023-09-19T08:33:41;94568.56;;;22.59;54.93
10732;BME280;5417;42.686;23.244;2023-09-19T08:36:10;94557.25;;;22.44;54.59
10732;BME280;5417;42.686;23.244;2023-09-19T08:38:39;94555.47;;;22.51;54.59
10732;BME280;5417;42.686;23.244;2023-09-19T08:41:07;94551.56;;;22.47;54.41
10732;BME280;5417;42.686;23.244;2023-09-19T08:43:36;94558.38;;;22.35;54.27
10732;BME280;5417;42.686;23.244;2023-09-19T08:46:10;94549.56;;;22.28;55.17
10732;BME280;5417;42.686;23.244;2023-09-19T08:48:45;94542.81;;;22.25;54.45
10732;BME280;5417;42.686;23.244;2023-09-19T08:54:18;94539.00;;;22.34;54.99
10732;BME280;5417;42.686;23.244;2023-09-19T08:56:50;94546.53;;;22.31;53.73
10732;BME280;5417;42.686;23.244;2023-09-19T08:59:21;94549.56;;;22.28;53.95
10732;BME280;5417;42.686;23.244;2023-09-19T09:01:52;94546.22;;;22.19;54.09
10732;BME280;5417;42.686;23.244;2023-09-19T09:04:21;94549.38;;;22.29;54.14
10732;BME280;5417;42.686;23.244;2023-09-19T09:06:49;94547.78;;;22.35;54.00
10732;BME280;5417;42.686;23.244;2023-09-19T09:09:20;94536.34;;;22.62;54.24
10732;BME280;5417;42.686;23.244;2023-09-19T09:11:48;94535.94;;;22.65;53.53
10732;BME280;5417;42.686;23.244;2023-09-19T09:14:22;94535.19;;;22.78;53.58
10732;BME280;5417;42.686;23.244;2023-09-19T09:16:50;94535.66;;;22.82;52.50
10732;BME280;5417;42.686;23.244;2023-09-19T09:19:22;94526.41;;;22.78;52.83
10732;BME280;5417;42.686;23.244;2023-09-19T09:21:52;94519.75;;;22.82;52.60
10732;BME280;5417;42.686;23.244;2023-09-19T09:24:28;94520.56;;;22.82;52.36
10732;BME280;5417;42.686;23.244;2023-09-19T09:26:59;94524.31;;;22.94;52.50
10732;BME280;5417;42.686;23.244;2023-09-19T09:30:04;94514.47;;;22.88;52.06
10732;BME280;5417;42.686;23.244;2023-09-19T09:32:32;94498.94;;;22.85;52.52
10732;BME280;5417;42.686;23.244;2023-09-19T09:35:06;94506.78;;;23.00;52.04
10732;BME280;5417;42.686;23.244;2023-09-19T09:37:36;94505.75;;;23.01;51.81
10732;BME280;5417;42.686;23.244;2023-09-19T09:40:07;94499.88;;;23.19;52.17
10732;BME280;5417;42.686;23.244;2023-09-19T09:42:47;94495.66;;;23.38;52.38
10732;BME280;5417;42.686;23.244;2023-09-19T09:45:20;94500.84;;;23.59;50.53
10732;BME280;5417;42.686;23.244;2023-09-19T09:47:54;94489.81;;;23.62;50.30
10732;BME280;5417;42.686;23.244;2023-09-19T09:50:34;94495.28;;;23.54;50.60
10732;BME280;5417;42.686;23.244;2023-09-19T09:53:32;94502.28;;;23.55;50.37
10732;BME280;5417;42.686;23.244;2023-09-19T09:56:18;94485.06;;;23.44;51.01
10732;BME280;5417;42.686;23.244;2023-09-19T09:58:50;94486.72;;;23.52;51.13
10732;BME280;5417;42.686;23.244;2023-09-19T10:01:22;94491.88;;;23.67;51.75
10732;BME280;5417;42.686;23.244;2023-09-19T10:10:30;94478.13;;;23.50;50.93
10732;BME280;5417;42.686;23.244;2023-09-19T10:13:35;94482.97;;;23.40;51.22
10732;BME280;5417;42.686;23.244;2023-09-19T10:16:07;94488.47;;;23.32;51.15
10732;BME280;5417;42.686;23.244;2023-09-19T10:18:38;94485.00;;;23.31;51.25
10732;BME280;5417;42.686;23.244;2023-09-19T10:21:13;94480.09;;;23.35;51.71
10732;BME280;5417;42.686;23.244;2023-09-19T10:23:48;94485.69;;;23.53;52.40
10732;BME280;5417;42.686;23.244;2023-09-19T10:26:28;94482.47;;;23.71;51.03
10732;BME280;5417;42.686;23.244;2023-09-19T10:28:57;94483.50;;;23.76;51.28
10732;BME280;5417;42.686;23.244;2023-09-19T10:31:28;94481.66;;;23.70;50.96
10732;BME280;5417;42.686;23.244;2023-09-19T10:34:08;94464.44;;;23.53;51.00
10732;BME280;5417;42.686;23.244;2023-09-19T10:39:36;94474.22;;;23.46;50.90
10732;BME280;5417;42.686;23.244;2023-09-19T10:42:06;94473.63;;;23.44;51.31
10732;BME280;5417;42.686;23.244;2023-09-19T10:44:38;94472.19;;;23.48;50.85
10732;BME280;5417;42.686;23.244;2023-09-19T10:47:06;94472.41;;;23.46;51.11
10732;BME280;5417;42.686;23.244;2023-09-19T10:49:34;94454.78;;;23.39;51.33
10732;BME280;5417;42.686;23.244;2023-09-19T10:52:02;94457.41;;;23.25;51.26
10732;BME280;5417;42.686;23.244;2023-09-19T10:54:34;94463.75;;;23.24;51.77
10732;BME280;5417;42.686;23.244;2023-09-19T10:57:04;94464.56;;;23.32;51.68
10732;BME280;5417;42.686;23.244;2023-09-19T10:59:34;94456.00;;;23.36;52.15
10732;BME280;5417;42.686;23.244;2023-09-19T11:02:16;94457.03;;;23.35;51.30
10732;BME280;5417;42.686;23.244;2023-09-19T11:04:45;94453.75;;;23.33;51.15
10732;BME280;5417;42.686;23.244;2023-09-19T11:07:14;94454.16;;;23.37;51.28
10732;BME280;5417;42.686;23.244;2023-09-19T11:09:46;94448.28;;;23.54;51.66
10732;BME280;5417;42.686;23.244;2023-09-19T11:18:55;94446.06;;;23.65;50.93
10732;BME280;5417;42.686;23.244;2023-09-19T11:21:52;94448.94;;;23.63;51.08
10732;BME280;5417;42.686;23.244;2023-09-19T11:24:58;94443.81;;;23.75;50.56
10732;BME280;5417;42.686;23.244;2023-09-19T11:27:49;94436.25;;;23.85;50.93
10732;BME280;5417;42.686;23.244;2023-09-19T11:30:50;94439.94;;;23.77;50.31
10732;BME280;5417;42.686;23.244;2023-09-19T11:33:20;94418.28;;;23.94;49.98
10732;BME280;5417;42.686;23.244;2023-09-19T11:36:06;94423.78;;;23.99;50.13
10732;BME280;5417;42.686;23.244;2023-09-19T11:39:01;94411.72;;;23.96;49.47
10732;BME280;5417;42.686;23.244;2023-09-19T11:41:39;94402.94;;;23.96;49.75
10732;BME280;5417;42.686;23.244;2023-09-19T11:44:32;94406.81;;;24.00;50.00
10732;BME280;5417;42.686;23.244;2023-09-19T11:47:01;94409.47;;;24.00;49.67
10732;BME280;5417;42.686;23.244;2023-09-19T11:49:30;94397.41;;;24.04;49.61
10732;BME280;5417;42.686;23.244;2023-09-19T11:52:00;94401.28;;;24.01;49.63
10732;BME280;5417;42.686;23.244;2023-09-19T11:54:32;94401.06;;;24.16;50.02
10732;BME280;5417;42.686;23.244;2023-09-19T11:56:59;94390.41;;;24.22;49.90
10732;BME280;5417;42.686;23.244;2023-09-19T11:59:29;94393.25;;;24.34;49.17
10732;BME280;5417;42.686;23.244;2023-09-19T12:01:57;94383.84;;;24.32;49.13
10732;BME280;5417;42.686;23.244;2023-09-19T12:04:34;94372.41;;;24.31;49.68
10732;BME280;5417;42.686;23.244;2023-09-19T12:07:04;94366.69;;;24.28;49.27
10732;BME280;5417;42.686;23.244;2023-09-19T12:10:19;94371.56;;;24.24;48.75
10732;BME280;5417;42.686;23.244;2023-09-19T12:12:31;94372.41;;;24.11;49.64
10732;BME280;5417;42.686;23.244;2023-09-19T12:14:59;94371.56;;;24.24;48.87
10732;BME280;5417;42.686;23.244;2023-09-19T12:17:58;94360.50;;;24.34;48.69
10732;BME280;5417;42.686;23.244;2023-09-19T12:20:25;94362.56;;;24.32;48.63
10732;BME280;5417;42.686;23.244;2023-09-19T12:22:53;94356.44;;;24.24;49.44
10732;BME280;5417;42.686;23.244;2023-09-19T12:25:22;94342.53;;;24.22;50.26
10732;BME280;5417;42.686;23.244;2023-09-19T12:27:50;94350.09;;;24.32;49.99
10732;BME280;5417;42.686;23.244;2023-09-19T12:30:27;94346.38;;;24.27;49.99
10732;BME280;5417;42.686;23.244;2023-09-19T12:32:58;94334.91;;;24.39;49.82
10732;BME280;5417;42.686;23.244;2023-09-19T12:35:33;94335.34;;;24.30;50.12
10732;BME280;5417;42.686;23.244;2023-09-19T12:38:06;94350.50;;;24.29;49.91
10732;BME280;5417;42.686;23.244;2023-09-19T12:40:37;94342.94;;;24.19;50.07
10732;BME280;5417;42.686;23.244;2023-09-19T12:43:08;94336.59;;;24.20;50.20
10732;BME280;5417;42.686;23.244;2023-09-19T12:45:42;94331.66;;;24.24;50.39
10732;BME280;5417;42.686;23.244;2023-09-19T12:48:23;94330.25;;;24.21;49.89
10732;BME280;5417;42.686;23.244;2023-09-19T12:51:01;94330.66;;;24.18;49.37
10732;BME280;5417;42.686;23.244;2023-09-19T12:53:32;94328.00;;;24.18;49.13
10732;BME280;5417;42.686;23.244;2023-09-19T12:56:04;94323.94;;;24.09;49.22
10732;BME280;5417;42.686;23.244;2023-09-19T12:58:34;94303.28;;;24.11;48.83
10732;BME280;5417;42.686;23.244;2023-09-19T13:01:14;94310.81;;;24.28;48.92
10732;BME280;5417;42.686;23.244;2023-09-19T13:03:43;94301.59;;;24.30;48.89
10732;BME280;5417;42.686;23.244;2023-09-19T13:06:11;94309.94;;;24.47;48.22
10732;BME280;5417;42.686;23.244;2023-09-19T13:08:40;94327.09;;;24.51;48.24
10732;BME280;5417;42.686;23.244;2023-09-19T13:11:11;94316.28;;;24.39;48.18
10732;BME280;5417;42.686;23.244;2023-09-19T13:17:34;94305.78;;;24.58;48.40
10732;BME280;5417;42.686;23.244;2023-09-19T13:20:21;94298.25;;;24.41;48.35
10732;BME280;5417;42.686;23.244;2023-09-19T13:22:50;94305.03;;;24.37;48.96
10732;BME280;5417;42.686;23.244;2023-09-19T13:25:21;94298.25;;;24.48;49.22
10732;BME280;5417;42.686;23.244;2023-09-19T13:27:51;94291.47;;;24.52;48.92
10732;BME280;5417;42.686;23.244;2023-09-19T13:30:20;94293.28;;;24.58;48.67
10732;BME280;5417;42.686;23.244;2023-09-19T13:32:47;94288.78;;;24.59;48.60
10732;BME280;5417;42.686;23.244;2023-09-19T13:35:18;94288.56;;;24.60;49.56
10732;BME280;5417;42.686;23.244;2023-09-19T13:37:47;94288.78;;;24.59;49.21
10732;BME280;5417;42.686;23.244;2023-09-19T13:40:15;94295.75;;;24.60;49.26
10732;BME280;5417;42.686;23.244;2023-09-19T13:42:50;94294.88;;;24.66;48.92
10732;BME280;5417;42.686;23.244;2023-09-19T13:45:19;94288.56;;;24.60;49.16
10732;BME280;5417;42.686;23.244;2023-09-19T13:47:47;94288.41;;;24.55;49.02
10732;BME280;5417;42.686;23.244;2023-09-19T13:50:14;94296.97;;;24.57;49.30
10732;BME280;5417;42.686;23.244;2023-09-19T13:52:42;94279.03;;;24.46;49.11
10732;BME280;5417;42.686;23.244;2023-09-19T13:55:11;94284.13;;;24.47;49.37
10732;BME280;5417;42.686;23.244;2023-09-19T13:57:40;94283.88;;;24.56;49.28
10732;BME280;5417;42.686;23.244;2023-09-19T14:00:19;94287.53;;;24.61;49.90
10732;BME280;5417;42.686;23.244;2023-09-19T14:02:46;94289.59;;;24.59;49.75
10732;BME280;5417;42.686;23.244;2023-09-19T14:05:14;94288.56;;;24.60;49.74
10732;BME280;5417;42.686;23.244;2023-09-19T14:07:42;94284.75;;;24.49;50.23
10732;BME280;5417;42.686;23.244;2023-09-19T14:10:10;94290.06;;;24.49;50.05
10732;BME280;5417;42.686;23.244;2023-09-19T14:12:37;94290.44;;;24.53;50.35
10732;BME280;5417;42.686;23.244;2023-09-19T14:15:07;94286.47;;;24.69;49.72
10732;BME280;5417;42.686;23.244;2023-09-19T14:17:35;94279.91;;;24.71;49.68
10732;BME280;5417;42.686;23.244;2023-09-19T14:20:02;94284.03;;;24.67;49.96
10732;BME280;5417;42.686;23.244;2023-09-19T14:22:32;94278.53;;;24.62;50.00
10732;BME280;5417;42.686;23.244;2023-09-19T14:24:59;94285.00;;;24.73;49.98
10732;BME280;5417;42.686;23.244;2023-09-19T14:27:26;94277.03;;;24.73;49.79
10732;BME280;5417;42.686;23.244;2023-09-19T14:29:53;94275.38;;;24.72;49.91
10732;BME280;5417;42.686;23.244;2023-09-19T14:32:20;94274.16;;;24.74;49.46
10732;BME280;5417;42.686;23.244;2023-09-19T14:34:49;94262.84;;;24.79;49.73
10732;BME280;5417;42.686;23.244;2023-09-19T14:37:16;94267.97;;;24.80;49.65
10732;BME280;5417;42.686;23.244;2023-09-19T14:40:12;94260.72;;;24.63;49.83
10732;BME280;5417;42.686;23.244;2023-09-19T14:43:23;94271.34;;;24.63;49.64
10732;BME280;5417;42.686;23.244;2023-09-19T14:45:50;94262.94;;;24.66;49.87
10732;BME280;5417;42.686;23.244;2023-09-19T14:48:23;94259.28;;;24.60;49.70
10732;BME280;5417;42.686;23.244;2023-09-19T14:51:06;94261.41;;;24.51;50.31
10732;BME280;5417;42.686;23.244;2023-09-19T14:53:34;94249.97;;;24.38;49.87
10732;BME280;5417;42.686;23.244;2023-09-19T14:56:07;94259.16;;;24.42;50.54
10732;BME280;5417;42.686;23.244;2023-09-19T14:58:51;94260.72;;;24.63;49.93
10732;BME280;5417;42.686;23.244;2023-09-19T15:01:18;94255.25;;;24.51;50.04
10732;BME280;5417;42.686;23.244;2023-09-19T15:03:51;94248.59;;;24.67;50.05
10732;BME280;5417;42.686;23.244;2023-09-19T15:06:39;94258.53;;;24.53;50.15
10732;BME280;5417;42.686;23.244;2023-09-19T15:09:39;94255.22;;;24.58;50.24
10732;BME280;5417;42.686;23.244;2023-09-19T15:12:06;94260.72;;;24.63;49.93
10732;BME280;5417;42.686;23.244;2023-09-19T15:14:35;94242.28;;;24.61;50.03
10732;BME280;5417;42.686;23.244;2023-09-19T15:17:02;94245.81;;;24.55;50.42
10732;BME280;5417;42.686;23.244;2023-09-19T15:20:05;94238.69;;;24.49;50.55
10732;BME280;5417;42.686;23.244;2023-09-19T15:22:27;94242.16;;;24.49;50.32
10732;BME280;5417;42.686;23.244;2023-09-19T15:25:13;94229.91;;;24.42;50.17
10732;BME280;5417;42.686;23.244;2023-09-19T15:31:10;94237.19;;;24.60;50.12
10732;BME280;5417;42.686;23.244;2023-09-19T15:33:38;94246.59;;;24.62;49.76
10732;BME280;5417;42.686;23.244;2023-09-19T15:36:05;94244.13;;;24.61;50.14
10732;BME280;5417;42.686;23.244;2023-09-19T15:39:02;94237.88;;;24.48;50.74
10732;BME280;5417;42.686;23.244;2023-09-19T15:41:32;94253.47;;;24.38;50.78
10732;BME280;5417;42.686;23.244;2023-09-19T15:44:02;94246.94;;;24.34;50.77
10732;BME280;5417;42.686;23.244;2023-09-19T15:46:29;94252.22;;;24.41;50.26
10732;BME280;5417;42.686;23.244;2023-09-19T15:48:57;94260.78;;;24.49;50.48
10732;BME280;5417;42.686;23.244;2023-09-19T16:00:46;94273.03;;;24.57;50.41
10732;BME280;5417;42.686;23.244;2023-09-19T16:03:38;94267.06;;;24.62;50.01
10732;BME280;5417;42.686;23.244;2023-09-19T16:12:04;94255.78;;;24.66;50.55
10732;BME280;5417;42.686;23.244;2023-09-19T16:14:39;94276.84;;;24.68;50.78
10732;BME280;5417;42.686;23.244;2023-09-19T16:17:10;94284.03;;;24.67;51.00
10732;BME280;5417;42.686;23.244;2023-09-19T16:19:40;94272.84;;;24.52;51.23
10732;BME280;5417;42.686;23.244;2023-09-19T16:22:10;94269.22;;;24.40;51.61
10732;BME280;5417;42.686;23.244;2023-09-19T16:24:37;94264.13;;;24.25;52.30
10732;BME280;5417;42.686;23.244;2023-09-19T16:27:05;94270.31;;;24.19;52.79
10732;BME280;5417;42.686;23.244;2023-09-19T16:29:32;94284.25;;;24.14;52.87
10732;BME280;5417;42.686;23.244;2023-09-19T16:31:59;94272.66;;;23.96;53.84
10732;BME280;5417;42.686;23.244;2023-09-19T16:34:29;94285.53;;;23.99;53.65
10732;BME280;5417;42.686;23.244;2023-09-19T16:36:57;94280.22;;;23.99;54.33
10732;BME280;5417;42.686;23.244;2023-09-19T16:39:24;94288.19;;;23.92;54.79
10732;BME280;5417;42.686;23.244;2023-09-19T16:41:51;94290.25;;;23.83;54.86
10732;BME280;5417;42.686;23.244;2023-09-19T16:44:18;94287.63;;;23.77;55.09
10732;BME280;5417;42.686;23.244;2023-09-19T16:46:46;94290.91;;;23.72;55.44
10732;BME280;5417;42.686;23.244;2023-09-19T16:49:13;94289.69;;;23.68;55.49
10732;BME280;5417;42.686;23.244;2023-09-19T16:54:47;94286.63;;;23.51;55.99
10732;BME280;5417;42.686;23.244;2023-09-19T16:57:15;94295.84;;;23.55;55.99
10732;BME280;5417;42.686;23.244;2023-09-19T16:59:42;94287.03;;;23.48;56.17
10732;BME280;5417;42.686;23.244;2023-09-19T17:02:09;94303.78;;;23.49;56.58
10732;BME280;5417;42.686;23.244;2023-09-19T17:04:38;94303.81;;;23.42;57.02
10732;BME280;5417;42.686;23.244;2023-09-19T17:10:42;94298.50;;;23.42;58.13
10732;BME280;5417;42.686;23.244;2023-09-19T17:13:33;94302.13;;;23.35;57.84
10732;BME280;5417;42.686;23.244;2023-09-19T17:16:56;94299.06;;;23.38;58.00
10732;BME280;5417;42.686;23.244;2023-09-19T17:19:17;94296.63;;;23.23;58.12
10732;BME280;5417;42.686;23.244;2023-09-19T17:22:38;94299.28;;;23.10;58.96
10732;BME280;5417;42.686;23.244;2023-09-19T17:25:09;94309.72;;;22.98;59.11
10732;BME280;5417;42.686;23.244;2023-09-19T17:27:44;94294.78;;;22.90;59.71
10732;BME280;5417;42.686;23.244;2023-09-19T17:30:13;94303.94;;;22.88;60.06
10732;BME280;5417;42.686;23.244;2023-09-19T17:32:41;94307.81;;;22.85;60.96
10732;BME280;5417;42.686;23.244;2023-09-19T17:35:14;94300.03;;;22.77;61.40
10732;BME280;5417;42.686;23.244;2023-09-19T17:37:45;94316.16;;;22.76;61.64
10732;BME280;5417;42.686;23.244;2023-09-19T17:40:12;94316.16;;;22.69;61.74
10732;BME280;5417;42.686;23.244;2023-09-19T17:46:05;94318.56;;;22.57;61.52
10732;BME280;5417;42.686;23.244;2023-09-19T17:48:33;94316.13;;;22.56;61.22